• Join FlightAware (Why Join?)
  • Login
  • US Flag 
12:39PM EDT


 

Airport Tracker/Info


-or-


 

Live Flight TrackerFlight Track Log ✈ XOJ549 ✈ 28-Jun-2013 ✈ KSUN - KHOU

Flight Track Log - Related Links

Times and Time Zones

All times are in EDT time to prevent confusion due to time zone crossing. See the XOJ549 flight status page for this flight to view local times or setup timezone preferences in your user account.

Time Position Orientation Groundspeed Altitude Reporting Facility
EDT Latitude Longitude Course Direction KTS MPH feet Rate Location/Type
03:39PM 43.1525 -113.4061 120° Southeast  Level FlightAware Approximate
03:39PM 43.2817 -114.1094 111° Southeast 340 391 14,700  Level Salt Lake Center
03:40PM 43.1035 -113.2554 116° Southeast  Level FlightAware Approximate
03:40PM 43.2214 -113.9844 123° Southeast 376 433 17,200  Level Salt Lake Center
03:41PM 43.0448 -113.1099 120° Southeast  Level FlightAware Approximate
03:41PM 43.1558 -113.8472 123° Southeast 391 450 20,200  Level Salt Lake Center
03:42PM 42.9833 -112.9665 114° Southeast  Level FlightAware Approximate
03:42PM 43.0981 -113.7219 122° Southeast 404 465 22,500  Level Salt Lake Center
03:43PM 42.9296 -112.8176 120° Southeast  Level FlightAware Approximate
03:43PM 43.0297 -113.5722 122° Southeast 414 476 25,100  Level Salt Lake Center
03:44PM 42.8695 -112.6734 120° Southeast  Level FlightAware Approximate
03:44PM 42.9678 -113.4433 123° Southeast 423 487 26,800  Level Salt Lake Center
03:45PM 42.9022 -113.3067 123° Southeast 444 511 28,000 1,020 Climbing Salt Lake Center
03:47PM 42.8222 -113.1372 123° Southeast 472 543 29,000 480 Climbing Salt Lake Center
03:48PM 42.7486 -112.9858 123° Southeast 497 572 29,000 240 Level Salt Lake Center
03:49PM 42.6578 -112.7978 123° Southeast 506 582 29,500 1,200 Climbing Salt Lake Center
03:50PM 42.5819 -112.6419 123° Southeast 496 571 31,600 1,980 Climbing Salt Lake Center
03:51PM 42.5075 -112.4894 123° Southeast 487 560 33,700 1,740 Climbing Salt Lake Center
03:52PM 42.4339 -112.3397 124° Southeast 480 552 35,300 1,500 Climbing Salt Lake Center
03:53PM 42.3592 -112.1889 124° Southeast 482 555 36,900 1,680 Climbing Salt Lake Center
03:54PM 42.2864 -112.0394 123° Southeast 478 550 38,800 1,500 Climbing Salt Lake Center
03:55PM 42.2144 -111.8953 124° Southeast 466 536 40,100 1,020 Climbing Salt Lake Center
03:56PM 42.1281 -111.7225 124° Southeast 464 534 41,000 420 Climbing Salt Lake Center
03:57PM 42.0533 -111.5747 124° Southeast 473 544 41,000  Level Salt Lake Center
03:58PM 41.9792 -111.4275 124° Southeast 476 548 41,000  Level Salt Lake Center
03:59PM 41.9047 -111.2814 124° Southeast 473 544 41,000  Level Salt Lake Center
04:00PM 41.8292 -111.1344 125° Southeast 477 549 41,000 300 Level Salt Lake Center
04:01PM 41.7536 -110.9869 124° Southeast 478 550 41,700 780 Climbing Salt Lake Center
04:02PM 41.6681 -110.8194 124° Southeast 475 547 42,700 600 Climbing Salt Lake Center
04:03PM 41.5950 -110.6806 125° Southeast 476 548 43,000 120 Climbing Salt Lake Center
04:04PM 41.5114 -110.5192 125° Southeast 476 548 43,000  Level Salt Lake Center
04:05PM 41.4397 -110.3822 125° Southeast 473 544 43,000  Level Salt Lake Center
04:06PM 41.3558 -110.2228 125° Southeast 472 543 43,000  Level Salt Lake Center
04:07PM 41.2828 -110.0869 126° Southeast 472 543 43,000 120 Level Salt Lake Center
04:08PM 41.1983 -109.9258 125° Southeast 477 549 43,300 480 Climbing Salt Lake Center
04:09PM 41.1258 -109.7906 125° Southeast 475 547 44,100 780 Climbing Salt Lake Center
04:10PM 41.0428 -109.6353 125° Southeast 466 536 45,000 420 Climbing Salt Lake Center
04:11PM 40.9722 -109.5039 125° Southeast 461 531 45,000  Level Salt Lake Center
04:12PM 40.8892 -109.3506 126° Southeast 464 534 45,000  Level Salt Lake Center
04:13PM 40.8200 -109.2225 125° Southeast 467 537 45,000  Level Salt Lake Center
04:14PM 40.7442 -109.0828 126° Southeast 471 542 45,000  Level Salt Lake Center
04:15PM 40.6586 -108.9261 126° Southeast 473 544 45,000  Level Salt Lake Center
04:16PM 40.5861 -108.7931 126° Southeast 469 540 45,000  Level Salt Lake Center
04:18PM 40.5008 -108.6369 126° Southeast 470 541 45,000  Level Salt Lake Center
04:19PM 40.4261 -108.5067 127° Southeast 470 541 45,000  Level Salt Lake Center
04:20PM 40.3408 -108.3550 126° Southeast 466 536 45,000  Level Salt Lake Center
04:21PM 40.2697 -108.2194 124° Southeast 466 536 45,000  Level Salt Lake Center
04:22PM 40.1828 -108.0664 127° Southeast 469 540 45,000  Level Salt Lake Center
04:23PM 40.1089 -107.9347 126° Southeast 467 537 45,000  Level Salt Lake Center
04:24PM 39.9975 -107.7394 127° Southeast 463 533 45,000  Level Denver Center
04:25PM 39.9239 -107.6103 127° Southeast 462 532 45,000  Level Denver Center
04:26PM 39.8372 -107.4611 127° Southeast 460 529 45,000  Level Denver Center
04:27PM 39.7639 -107.3322 126° Southeast 461 531 45,000  Level Denver Center
04:28PM 39.6653 -107.1631 127° Southeast 459 528 45,000  Level Denver Center
04:29PM 39.5919 -107.0369 127° Southeast 458 527 45,000  Level Denver Center
04:31PM 39.5398 -106.8820 128° Southeast  Level FlightAware Approximate
04:32PM 39.4306 -106.7622 128° Southeast 461 531 45,000  Level Denver Center
04:33PM 39.3442 -106.6158 127° Southeast 459 528 45,000  Level Denver Center
04:34PM 39.2697 -106.4889 127° Southeast 462 532 45,000  Level Denver Center
04:35PM 39.1825 -106.3419 127° Southeast 462 532 45,000  Level Denver Center
04:36PM 39.1056 -106.2158 128° Southeast 465 535 45,000  Level Denver Center
04:37PM 39.0325 -106.0911 127° Southeast 465 535 45,000  Level Denver Center
04:38PM 38.9519 -105.9589 128° Southeast 469 540 45,000  Level Denver Center
04:39PM 38.8611 -105.8072 128° Southeast 463 533 45,000  Level Denver Center
04:40PM 38.7711 -105.6589 128° Southeast 470 541 45,000  Level Denver Center
04:41PM 38.6933 -105.5331 128° Southeast 470 541 45,000  Level Denver Center
04:42PM 38.5897 -105.3661 128° Southeast 468 539 45,000  Level Denver Center
04:43PM 38.5147 -105.2381 127° Southeast 470 541 45,000  Level Denver Center
04:44PM 38.4361 -105.1131 129° Southeast 472 543 45,000  Level Denver Center
04:45PM 38.3433 -104.9667 129° Southeast 473 544 45,000  Level Denver Center
04:46PM 38.2528 -104.8208 128° Southeast 470 541 45,000  Level Denver Center
04:47PM 38.1756 -104.6978 129° Southeast 467 537 45,000  Level Denver Center
04:48PM 38.0853 -104.5533 128° Southeast 465 535 45,000  Level Denver Center
04:49PM 38.0092 -104.4328 129° Southeast 459 528 45,000  Level Denver Center
04:50PM 37.9192 -104.2908 129° Southeast 461 531 45,000  Level Denver Center
04:51PM 37.8425 -104.1706 129° Southeast 457 526 45,000  Level Denver Center
04:52PM 37.7672 -104.0500 128° Southeast 453 521 45,000  Level Denver Center
04:54PM 37.6769 -103.9047 128° Southeast 461 531 45,000  Level Denver Center
04:55PM 37.5822 -103.7614 130° Southeast 467 537 45,000  Level Denver Center
04:56PM 37.4767 -103.6008 130° Southeast 463 533 45,000  Level Denver Center
04:57PM 37.3856 -103.4608 129° Southeast 462 532 45,000  Level Denver Center
04:58PM 37.3333 -103.3814 130° Southeast 463 533 45,000  Level Albuquerque Center
04:59PM 37.2539 -103.2619 130° Southeast 464 534 45,000  Level Albuquerque Center
05:00PM 37.1636 -103.1231 129° Southeast 461 531 45,000  Level Albuquerque Center
05:01PM 37.0847 -103.0042 130° Southeast 462 532 45,000  Level Albuquerque Center
05:02PM 36.9936 -102.8647 129° Southeast 463 533 45,000  Level Albuquerque Center
05:03PM 36.9139 -102.7467 130° Southeast 463 533 45,000  Level Albuquerque Center
05:04PM 36.8222 -102.6083 130° Southeast 463 533 45,000  Level Albuquerque Center
05:05PM 36.7411 -102.4881 130° Southeast 464 534 45,000  Level Albuquerque Center
05:06PM 36.6592 -102.3647 130° Southeast 463 533 45,000  Level Albuquerque Center
05:07PM 36.5775 -102.2442 130° Southeast 459 528 45,000  Level Albuquerque Center
05:08PM 36.4947 -102.1217 130° Southeast 460 529 45,000  Level Albuquerque Center
05:09PM 36.4125 -102.0014 130° Southeast 458 527 45,000  Level Albuquerque Center
05:10PM 36.3136 -101.8578 130° Southeast 457 526 45,000  Level Albuquerque Center
05:11PM 36.2314 -101.7369 130° Southeast 457 526 45,000  Level Albuquerque Center
05:12PM 36.1492 -101.6161 130° Southeast 459 528 45,000  Level Albuquerque Center
05:13PM 36.0667 -101.4975 131° Southeast 455 524 45,000  Level Albuquerque Center
05:14PM 35.9858 -101.3761 129° Southeast 455 524 45,000  Level Albuquerque Center
05:15PM 35.9019 -101.2575 131° Southeast 456 525 45,000  Level Albuquerque Center
05:16PM 35.8194 -101.1383 130° Southeast 456 525 45,000  Level Albuquerque Center
05:17PM 35.7356 -101.0192 131° Southeast 458 527 45,000  Level Albuquerque Center
05:18PM 35.6364 -100.8769 131° Southeast 455 524 45,000  Level Albuquerque Center
05:19PM 35.5517 -100.7569 131° Southeast 460 529 45,000  Level Albuquerque Center
05:20PM 35.4694 -100.6411 131° Southeast 462 532 45,000  Level Albuquerque Center
05:21PM 35.3847 -100.5236 131° Southeast 461 531 45,000  Level Albuquerque Center
05:22PM 35.3008 -100.4056 131° Southeast 460 529 45,000  Level Albuquerque Center
05:23PM 35.2156 -100.2875 131° Southeast 462 532 45,000  Level Albuquerque Center
05:24PM 35.1331 -100.1708 131° Southeast 457 526 45,000  Level Albuquerque Center
05:25PM 35.0319 -100.0297 131° Southeast 459 528 45,000  Level Albuquerque Center
05:26PM 34.9472 -99.9133 132° Southeast 459 528 45,000  Level Albuquerque Center
05:28PM 34.8628 -99.7961 131° Southeast 461 531 45,000  Level Albuquerque Center
05:29PM 34.7772 -99.6797 132° Southeast 461 531 45,000  Level Albuquerque Center
05:30PM 34.6928 -99.5633 131° Southeast 460 529 45,000  Level Albuquerque Center
05:31PM 34.6014 -99.4419 132° Southeast 453 521 45,000  Level Fort Worth Center
05:32PM 34.5156 -99.3239 131° Southeast 453 521 45,000  Level Fort Worth Center
05:33PM 34.4297 -99.2061 131° Southeast 460 529 45,000  Level Fort Worth Center
05:34PM 34.3394 -99.0861 132° Southeast 455 524 45,000  Level Fort Worth Center
05:35PM 34.2511 -98.9739 134° Southeast 447 514 45,000  Level Fort Worth Center
05:36PM 34.1669 -98.8594 132° Southeast 453 521 45,000  Level Fort Worth Center
05:37PM 34.0850 -98.7400 130° Southeast 453 521 45,000  Level Fort Worth Center
05:38PM 33.9964 -98.6236 133° Southeast 453 521 45,000  Level Fort Worth Center
05:39PM 33.9119 -98.5097 132° Southeast 458 527 45,000  Level Fort Worth Center
05:40PM 33.8250 -98.3961 133° Southeast 458 527 45,000  Level Fort Worth Center
05:41PM 33.7403 -98.2828 132° Southeast 458 527 45,000  Level Fort Worth Center
05:42PM 33.6536 -98.1694 133° Southeast 453 521 45,000  Level Fort Worth Center
05:43PM 33.5686 -98.0567 132° Southeast 448 516 45,000  Level Fort Worth Center
05:44PM 33.4814 -97.9464 133° Southeast 448 516 45,000  Level Fort Worth Center
05:45PM 33.3964 -97.8314 132° Southeast 448 516 45,000  Level Fort Worth Center
05:46PM 33.3089 -97.7242 134° Southeast 448 516 45,000  Level Fort Worth Center
05:47PM 33.2236 -97.6097 132° Southeast 448 516 45,000  Level Fort Worth Center
05:48PM 33.1381 -97.5003 133° Southeast 448 516 45,000  Level Fort Worth Center
05:49PM 33.0547 -97.3936 133° Southeast 448 516 45,000  Level Fort Worth Center
05:50PM 32.9628 -97.2722 132° Southeast 455 524 45,000  Level Fort Worth Center
05:51PM 32.8833 -97.1711 133° Southeast 468 539 45,000  Level Fort Worth Center
05:52PM 32.7847 -97.0575 136° Southeast 456 525 45,000  Level Fort Worth Center
05:54PM 32.6108 -96.8683 137° Southeast 448 516 45,000  Level Fort Worth Center
05:55PM 32.4917 -96.8272 164° South 438 504 45,000  Level Fort Worth Center
05:56PM 32.3706 -96.8231 178° South 432 497 45,000  Level Fort Worth Center
05:57PM 32.2494 -96.8139 176° South 432 497 45,000  Level Fort Worth Center
05:58PM 32.1264 -96.8100 178° South 432 497 45,000 -540 Level Fort Worth Center
05:59PM 32.0053 -96.8008 176° South 440 506 44,000 -1,020 Descending Fort Worth Center
06:00PM 31.8800 -96.7944 178° South 445 512 43,000 -1,020 Descending Fort Worth Center
06:01PM 31.7586 -96.7878 177° South 439 505 42,000 -960 Descending Fort Worth Center
06:01PM 31.7011 -96.7839 177° South 441 507 41,600 -1,080 Descending Houston Center
06:02PM 31.5758 -96.7778 178° South 443 510 40,400 -1,260 Descending Houston Center
06:03PM 31.4450 -96.7697 177° South 457 526 39,000 -720 Descending Houston Center
06:04PM 31.2903 -96.7603 177° South 472 543 39,000 -360 Level Houston Center
06:05PM 31.1542 -96.7481 176° South 479 551 38,300 -780 Descending Houston Center
06:06PM 31.0217 -96.7247 171° South 476 548 37,500 -1,800 Descending Houston Center
06:07PM 30.8922 -96.7069 173° South 467 537 34,700 -4,200 Descending Houston Center
06:08PM 30.7631 -96.6864 172° South 459 528 28,800 -5,520 Descending Houston Center
06:09PM 30.6328 -96.6656 172° South 463 533 23,200 -4,260 Descending Houston Center
06:10PM 30.5317 -96.5944 149° Southeast 441 507 20,000 -2,760 Descending Houston Center
06:11PM 30.4464 -96.4956 135° Southeast 432 497 17,600 -2,400 Descending Houston Center
06:13PM 30.3547 -96.3864 134° Southeast 401 461 15,100 -2,280 Descending Houston Center
06:14PM 30.2778 -96.2944 134° Southeast 393 452 13,000 -1,980 Descending Houston Center
06:15PM 30.2031 -96.2069 135° Southeast 382 440 11,100 -1,380 Descending Houston Center
06:16PM 30.1300 -96.1317 138° Southeast 371 427 10,200 -540 Descending Houston Center
06:17PM 30.0597 -96.0478 134° Southeast 363 418 10,000 -300 Descending Houston Center
06:18PM 29.9836 -95.9608 135° Southeast 344 396 9,600 -1,200 Descending Houston Center
06:19PM 29.9269 -95.8922 134° Southeast 300 345 7,600 -1,800 Descending Houston Center
06:20PM 29.8828 -95.8136 123° Southeast 292 336 6,000 -1,140 Descending Houston Center
06:21PM 29.8539 -95.7339 113° Southeast 272 313 5,300 -1,260 Descending Houston Center
06:22PM 29.8175 -95.6361 113° Southeast 277 319 3,400 -1,200 Descending Houston Center
06:23PM 29.7881 -95.5547 113° Southeast 277 319 2,900 -660 Descending Houston Center
06:24PM 29.7583 -95.4744 113° Southeast 274 315 2,100 -480 Descending Houston Center
06:25PM 29.7442 -95.4056 103° East 240 276 2,000 -240 Descending Houston Center
06:26PM 29.7089 -95.3544 128° Southeast 219 252 1,700 -660 Descending Houston Center
06:27PM 29.6731 -95.3125 135° Southeast 177 204 700 -720 Descending Houston Center
06:28PM 29.6525 -95.2883 134° Southeast 152 175 200 -540 Descending Houston Center
06:30PM 29.6454 -95.2789 120° Southeast  Level Estimated